Etihad Airways Virtual Airport Information Service

Manchester Airport

ICAO: EGCC Country: United Kingdom
Latitude: 53.3537 Longitude: -2.27495
Latest Arrival : ETD21 (OMAA-EGCC) Latest Departure : ETD22 (EGCC-OMAA)


WX CaptureLIVE
Data provided by noaa.gov | Recorded at 17:33:17

METAR : EGCC 081720Z AUTO 25004KT 4200 HZ NCD 18/08 Q1023

TAF : EGCC 081104Z 0812/0918 27005KT 9999 FEW040 PROB30 0900/0908 8000 BECMG 0909/0912 10010KT


Runway Data for EGCC
Data provided by openaviationdata.com

Runway ID Mag Var Hdg Length Elevation Surface ILS Freq ILS Id ILS Slope

Manchester Airport, United Kingdom
Use only for reference purposes